createdAt,value
2018-03-26T00:00:16.770Z,34.67
2018-03-26T00:02:44.318Z,33.83
2018-03-26T00:05:11.826Z,36.50
2018-03-26T00:07:39.342Z,34.67
2018-03-26T00:10:06.887Z,36.60
2018-03-26T00:12:34.404Z,35.60
2018-03-26T00:15:02.798Z,37.33
2018-03-26T00:17:31.066Z,34.67
2018-03-26T00:19:59.380Z,36.90
2018-03-26T00:22:26.917Z,37.80
2018-03-26T00:24:54.453Z,34.80
2018-03-26T00:27:22.254Z,35.87
2018-03-26T00:29:49.746Z,36.40
2018-03-26T00:32:17.231Z,37.57
2018-03-26T00:34:45.687Z,38.20
2018-03-26T00:37:13.173Z,37.37
2018-03-26T00:39:40.695Z,34.43
2018-03-26T00:42:08.186Z,36.43
2018-03-26T00:44:36.496Z,37.67
2018-03-26T00:47:04.018Z,39.23
2018-03-26T00:49:32.433Z,36.60
2018-03-26T00:51:59.952Z,36.50
2018-03-26T00:54:27.519Z,34.57
2018-03-26T00:56:57.110Z,35.57
2018-03-26T00:59:24.576Z,38.57
2018-03-26T01:01:52.862Z,37.37
2018-03-26T01:04:20.391Z,40.00
2018-03-26T01:06:47.906Z,37.53
2018-03-26T01:09:15.432Z,38.23
2018-03-26T01:11:43.733Z,36.17
2018-03-26T01:14:11.221Z,36.97
2018-03-26T01:16:38.729Z,36.90
2018-03-26T01:19:06.247Z,37.87
2018-03-26T01:21:33.773Z,39.13
2018-03-26T01:24:01.292Z,39.00
2018-03-26T01:26:29.582Z,39.73
2018-03-26T01:28:57.109Z,44.27
2018-03-26T01:31:25.430Z,42.23
2018-03-26T01:33:52.939Z,39.80
2018-03-26T01:36:20.466Z,39.77
2018-03-26T01:38:48.005Z,39.73
2018-03-26T01:41:15.550Z,48.43
2018-03-26T01:43:43.064Z,40.13
2018-03-26T01:46:11.388Z,41.37
2018-03-26T01:48:38.980Z,41.67
2018-03-26T01:51:06.504Z,38.40
2018-03-26T01:53:34.069Z,43.50
2018-03-26T01:56:01.572Z,41.33
2018-03-26T01:58:29.084Z,42.77
2018-03-26T02:00:56.643Z,43.80
2018-03-26T02:03:24.158Z,39.70
2018-03-26T02:05:52.487Z,43.50
2018-03-26T02:08:20.022Z,42.80
2018-03-26T02:10:47.531Z,45.57
2018-03-26T02:13:15.119Z,44.63
2018-03-26T02:15:43.603Z,45.47
2018-03-26T02:18:11.946Z,48.03
2018-03-26T02:20:39.510Z,47.73
2018-03-26T02:23:07.095Z,53.73
2018-03-26T02:25:35.417Z,52.70
2018-03-26T02:28:02.938Z,51.33
2018-03-26T02:30:30.486Z,54.90
2018-03-26T02:32:58.931Z,54.97
2018-03-26T02:35:26.467Z,57.60
2018-03-26T02:37:53.993Z,59.33
2018-03-26T02:40:22.115Z,57.83
2018-03-26T02:42:49.630Z,59.77
2018-03-26T02:45:17.162Z,59.93
2018-03-26T02:47:44.702Z,60.67
2018-03-26T02:50:12.277Z,62.97
2018-03-26T02:52:39.772Z,62.57
2018-03-26T02:55:07.657Z,61.90
2018-03-26T02:57:35.234Z,68.13
2018-03-26T03:00:02.781Z,75.87
2018-03-26T03:02:30.326Z,73.37
2018-03-26T03:04:57.854Z,71.50
2018-03-26T03:07:25.544Z,69.10
2018-03-26T03:09:53.047Z,74.30
2018-03-26T03:12:21.335Z,67.50
2018-03-26T03:14:49.590Z,70.27
2018-03-26T03:17:17.104Z,70.07
2018-03-26T03:19:44.758Z,70.37
2018-03-26T03:22:12.297Z,67.97
2018-03-26T03:24:39.792Z,68.67
2018-03-26T03:27:07.329Z,70.00
2018-03-26T03:29:34.822Z,70.47
2018-03-26T03:32:02.897Z,66.80
2018-03-26T03:34:30.383Z,67.13
2018-03-26T03:36:58.827Z,66.17
2018-03-26T03:39:26.554Z,68.40
2018-03-26T03:41:54.070Z,66.40
2018-03-26T03:44:22.340Z,69.10
2018-03-26T03:46:49.879Z,68.57
2018-03-26T03:49:17.399Z,68.17
2018-03-26T03:51:44.987Z,68.00
2018-03-26T03:54:12.514Z,63.17
2018-03-26T03:56:40.046Z,63.60
2018-03-26T03:59:08.326Z,64.90
2018-03-26T04:01:35.876Z,69.67
2018-03-26T04:04:04.163Z,62.30
2018-03-26T04:06:32.462Z,64.30
2018-03-26T04:08:59.956Z,63.10
2018-03-26T04:11:27.473Z,60.10
2018-03-26T04:13:54.978Z,60.73
2018-03-26T04:16:22.587Z,59.73
2018-03-26T04:18:50.104Z,60.20
2018-03-26T04:21:17.663Z,58.87
2018-03-26T04:23:45.199Z,56.40
2018-03-26T04:26:12.703Z,56.93
2018-03-26T04:28:40.248Z,55.40
2018-03-26T04:31:08.588Z,57.87
2018-03-26T04:33:36.921Z,55.10
2018-03-26T04:36:04.453Z,50.40
2018-03-26T04:38:32.743Z,56.40
2018-03-26T04:41:00.270Z,56.17
2018-03-26T04:43:27.812Z,51.50
2018-03-26T04:45:55.331Z,50.40
2018-03-26T04:48:22.887Z,48.70
2018-03-26T04:50:51.147Z,48.30
2018-03-26T04:53:19.420Z,48.50
2018-03-26T04:55:47.839Z,45.10
2018-03-26T04:58:15.342Z,47.03
2018-03-26T05:00:42.906Z,45.83
2018-03-26T05:03:10.426Z,49.80
2018-03-26T05:05:37.959Z,47.83
2018-03-26T05:08:05.514Z,44.40
2018-03-26T05:10:33.042Z,45.57
2018-03-26T05:13:01.349Z,43.13
2018-03-26T05:15:28.871Z,48.33
2018-03-26T05:17:57.147Z,45.03
2018-03-26T05:20:25.425Z,45.00
2018-03-26T05:22:53.719Z,47.33
2018-03-26T05:25:22.089Z,46.20
2018-03-26T05:27:49.627Z,44.03
2018-03-26T05:30:17.148Z,44.80
2018-03-26T05:32:44.734Z,45.43
2018-03-26T05:35:12.246Z,48.40
2018-03-26T05:37:39.841Z,46.03
2018-03-26T05:40:08.161Z,45.37
2018-03-26T05:42:35.738Z,45.47
2018-03-26T05:45:03.270Z,46.27
2018-03-26T05:47:31.550Z,46.20
2018-03-26T05:49:59.902Z,47.00
2018-03-26T05:52:28.264Z,44.67
2018-03-26T05:54:55.779Z,47.67
2018-03-26T05:57:23.297Z,45.40
2018-03-26T05:59:51.575Z,48.27
2018-03-26T06:02:19.882Z,48.30
2018-03-26T06:04:47.437Z,49.07
2018-03-26T06:07:14.992Z,48.77
2018-03-26T06:09:42.873Z,44.87
2018-03-26T06:12:10.386Z,45.77
2018-03-26T06:14:38.704Z,45.13
2018-03-26T06:17:17.859Z,49.77
2018-03-26T06:19:45.403Z,47.80
2018-03-26T06:22:12.990Z,46.50
2018-03-26T06:24:40.486Z,47.87
2018-03-26T06:27:08.005Z,47.40
2018-03-26T06:29:35.528Z,48.47
2018-03-26T06:32:03.076Z,47.57
2018-03-26T06:34:30.713Z,49.37
2018-03-26T06:37:14.723Z,47.83
2018-03-26T06:39:42.243Z,48.67
2018-03-26T06:42:09.756Z,47.87
2018-03-26T06:44:37.279Z,49.43
2018-03-26T06:47:05.209Z,45.70
2018-03-26T06:49:32.662Z,47.07
2018-03-26T06:52:00.200Z,47.67
2018-03-26T06:54:29.232Z,48.70
2018-03-26T06:56:56.779Z,51.10
2018-03-26T06:59:24.278Z,47.37
2018-03-26T07:01:51.811Z,52.67
2018-03-26T07:04:19.319Z,46.20
2018-03-26T07:06:47.628Z,54.07
2018-03-26T07:09:15.911Z,52.37
2018-03-26T07:11:43.431Z,51.40
2018-03-26T07:14:11.767Z,53.00
2018-03-26T07:16:39.293Z,52.00
2018-03-26T07:19:06.802Z,49.90
2018-03-26T07:21:34.339Z,54.67
2018-03-26T07:24:01.843Z,55.33
2018-03-26T07:26:30.151Z,53.80
2018-03-26T07:28:57.680Z,55.10
2018-03-26T07:31:25.173Z,53.93
2018-03-26T07:33:52.771Z,53.63
2018-03-26T07:36:20.304Z,59.37
2018-03-26T07:38:47.906Z,56.50
2018-03-26T07:41:15.449Z,54.87
2018-03-26T07:43:43.034Z,57.57
2018-03-26T07:46:11.335Z,54.87
2018-03-26T07:48:38.892Z,62.57
2018-03-26T07:51:07.173Z,69.27
2018-03-26T07:53:34.806Z,63.80
2018-03-26T07:56:03.134Z,67.10
2018-03-26T07:58:30.672Z,73.30
2018-03-26T08:00:58.231Z,70.17
2018-03-26T08:03:25.787Z,69.50
2018-03-26T08:05:53.308Z,71.90
2018-03-26T08:08:21.654Z,65.60
2018-03-26T08:10:49.168Z,68.83
2018-03-26T08:13:16.793Z,73.13
2018-03-26T08:15:55.028Z,79.03
2018-03-26T08:18:22.542Z,79.23
2018-03-26T08:20:50.100Z,80.90
2018-03-26T08:23:17.674Z,81.77
2018-03-26T08:25:46.025Z,84.33
2018-03-26T08:28:13.834Z,81.60
2018-03-26T08:30:42.126Z,85.30
2018-03-26T08:33:09.606Z,87.90
2018-03-26T08:35:37.149Z,85.47
2018-03-26T08:38:04.678Z,77.27
2018-03-26T08:40:33.038Z,73.60
2018-03-26T08:43:00.625Z,77.37
2018-03-26T08:45:28.120Z,78.43
2018-03-26T08:47:55.644Z,75.00
2018-03-26T08:50:23.166Z,76.70
2018-03-26T08:52:50.690Z,72.40
2018-03-26T08:55:18.255Z,72.00
2018-03-26T08:57:45.778Z,66.60
2018-03-26T09:00:13.315Z,65.80
2018-03-26T09:02:41.588Z,60.90
2018-03-26T09:05:09.925Z,61.03
2018-03-26T09:07:37.483Z,60.03
2018-03-26T09:10:04.992Z,61.37
2018-03-26T09:12:32.593Z,49.00
2018-03-26T09:15:00.132Z,35.03
2018-03-26T09:17:27.699Z,25.90
2018-03-26T09:19:55.232Z,31.60
2018-03-26T09:22:24.476Z,35.83
2018-03-26T09:24:52.032Z,33.30
2018-03-26T09:27:19.521Z,31.93
2018-03-26T09:29:47.835Z,32.53
2018-03-26T09:32:15.350Z,26.87
2018-03-26T09:34:43.629Z,22.83
2018-03-26T09:37:11.163Z,21.70
2018-03-26T09:39:38.681Z,22.30
2018-03-26T09:42:06.307Z,22.83
2018-03-26T09:44:34.601Z,23.63
2018-03-26T09:47:02.128Z,143.60
2018-03-26T09:49:29.657Z,21.40
2018-03-26T09:51:57.157Z,21.27
2018-03-26T09:54:25.455Z,19.43
2018-03-26T09:56:53.075Z,18.17
2018-03-26T09:59:20.564Z,13.80
2018-03-26T10:01:53.912Z,12.37
2018-03-26T10:04:21.406Z,19.83
2018-03-26T10:06:49.710Z,15.70
2018-03-26T10:09:17.233Z,14.60
2018-03-26T10:11:45.517Z,9.40
2018-03-26T10:14:13.809Z,8.60
2018-03-26T10:16:41.310Z,10.40
2018-03-26T10:19:09.135Z,10.20
2018-03-26T10:21:36.657Z,10.20
2018-03-26T10:24:04.959Z,10.50
2018-03-26T10:26:33.324Z,13.30
2018-03-26T10:29:01.596Z,11.77
2018-03-26T10:31:29.892Z,11.20
2018-03-26T10:33:57.407Z,8.30
2018-03-26T10:36:25.108Z,10.70
2018-03-26T10:38:52.751Z,14.33
2018-03-26T10:41:21.015Z,7.53
2018-03-26T10:43:49.332Z,4.27
2018-03-26T10:46:16.858Z,5.00
2018-03-26T10:48:45.138Z,5.50
2018-03-26T10:51:12.699Z,4.90
2018-03-26T10:53:40.989Z,5.43
2018-03-26T10:56:08.535Z,6.20
2018-03-26T10:58:36.150Z,5.33
2018-03-26T11:01:03.782Z,5.50
2018-03-26T11:03:31.659Z,6.20
2018-03-26T11:05:59.363Z,9.30
2018-03-26T11:08:27.265Z,10.30
2018-03-26T11:10:54.870Z,9.53
2018-03-26T11:13:22.398Z,9.40
2018-03-26T11:15:49.973Z,10.17
2018-03-26T11:18:17.479Z,10.80
2018-03-26T11:20:45.014Z,14.80
2018-03-26T11:23:13.138Z,16.07
2018-03-26T11:25:40.685Z,16.00
2018-03-26T11:28:08.237Z,17.50
2018-03-26T11:30:35.826Z,24.83
2018-03-26T11:33:03.446Z,19.60
2018-03-26T11:35:31.726Z,20.67
2018-03-26T11:37:59.264Z,21.53
2018-03-26T11:40:26.858Z,76.90
2018-03-26T11:42:54.399Z,25.57
2018-03-26T11:45:21.969Z,20.40
2018-03-26T11:47:49.507Z,19.63
2018-03-26T11:50:17.891Z,21.00
2018-03-26T11:52:45.475Z,18.40
2018-03-26T11:55:12.997Z,22.63
2018-03-26T11:57:40.517Z,22.20
2018-03-26T12:00:08.065Z,23.30
2018-03-26T12:02:35.592Z,22.97
2018-03-26T12:05:03.221Z,21.17
2018-03-26T12:07:31.565Z,20.70
2018-03-26T12:09:59.372Z,17.73
2018-03-26T12:12:27.682Z,15.20
2018-03-26T12:14:55.244Z,15.40
2018-03-26T12:17:23.027Z,16.20
2018-03-26T12:20:02.331Z,14.80
2018-03-26T12:22:29.948Z,14.77
2018-03-26T12:25:15.813Z,17.57
2018-03-26T12:27:55.408Z,17.50
2018-03-26T12:30:25.324Z,15.90
2018-03-26T12:32:53.103Z,17.57
2018-03-26T12:35:32.502Z,14.90
2018-03-26T12:38:00.084Z,14.63
2018-03-26T12:40:40.583Z,14.53
2018-03-26T12:43:08.129Z,15.07
2018-03-26T12:45:47.434Z,16.93
2018-03-26T12:48:14.958Z,15.77
2018-03-26T12:51:05.127Z,14.17
2018-03-26T12:53:32.679Z,13.60
2018-03-26T12:56:00.254Z,13.30
2018-03-26T12:58:39.784Z,10.00
2018-03-26T13:01:19.025Z,9.70
2018-03-26T13:03:47.345Z,8.80
2018-03-26T13:06:16.156Z,7.83
2018-03-26T13:08:44.430Z,7.80
2018-03-26T13:11:12.099Z,6.97
2018-03-26T13:13:40.385Z,6.70
2018-03-26T13:16:07.999Z,7.70
2018-03-26T13:18:35.590Z,7.30
2018-03-26T13:21:03.134Z,7.57
2018-03-26T13:23:30.649Z,7.37
2018-03-26T13:25:58.996Z,7.80
2018-03-26T13:28:26.509Z,6.07
2018-03-26T13:30:54.062Z,5.50
2018-03-26T13:33:22.340Z,4.80
2018-03-26T13:35:49.859Z,5.20
2018-03-26T13:38:17.488Z,5.23
2018-03-26T13:40:44.995Z,6.83
2018-03-26T13:43:13.962Z,7.03
2018-03-26T13:45:41.558Z,5.00
2018-03-26T13:48:09.863Z,5.60
2018-03-26T13:50:37.725Z,5.20
2018-03-26T13:53:05.255Z,5.53
2018-03-26T13:55:33.538Z,4.90
2018-03-26T13:58:01.063Z,6.30
2018-03-26T14:00:28.650Z,5.37
2018-03-26T14:02:56.341Z,6.63
2018-03-26T14:05:23.849Z,5.40
2018-03-26T14:07:52.246Z,5.40
2018-03-26T14:10:31.700Z,5.13
2018-03-26T14:13:11.227Z,4.87
2018-03-26T14:15:50.803Z,4.20
2018-03-26T14:18:18.354Z,3.10
2018-03-26T14:20:45.879Z,4.77
2018-03-26T14:23:13.410Z,3.70
2018-03-26T14:25:40.907Z,4.10
2018-03-26T14:28:08.420Z,3.50
2018-03-26T14:30:35.956Z,3.50
2018-03-26T14:33:03.468Z,3.23
2018-03-26T14:35:46.617Z,3.47
2018-03-26T14:38:14.139Z,3.30
2018-03-26T14:40:42.409Z,3.43
2018-03-26T14:43:09.990Z,3.97
2018-03-26T14:45:38.271Z,2.80
2018-03-26T14:48:05.847Z,3.90
2018-03-26T14:50:33.365Z,3.90
2018-03-26T14:53:01.639Z,6.00
2018-03-26T14:55:29.966Z,4.63
2018-03-26T14:57:57.442Z,5.00
2018-03-26T15:00:24.967Z,5.10
2018-03-26T15:02:52.532Z,4.97
2018-03-26T15:05:20.817Z,5.60
2018-03-26T15:07:48.461Z,6.00
2018-03-26T15:10:15.949Z,5.60
2018-03-26T15:12:43.460Z,6.50
2018-03-26T15:15:10.951Z,6.30
2018-03-26T15:17:38.476Z,7.07
2018-03-26T15:20:06.010Z,6.80
2018-03-26T15:22:34.322Z,7.00
2018-03-26T15:25:01.842Z,6.43
2018-03-26T15:27:30.202Z,9.23
2018-03-26T15:29:58.323Z,8.90
2018-03-26T15:32:25.891Z,8.23
2018-03-26T15:34:53.422Z,7.40
2018-03-26T15:37:20.975Z,27.70
2018-03-26T15:39:48.495Z,7.90
2018-03-26T15:42:16.050Z,7.07
2018-03-26T15:44:43.590Z,7.20
2018-03-26T15:47:11.208Z,7.17
2018-03-26T15:49:40.528Z,6.30
2018-03-26T15:52:08.039Z,5.67
2018-03-26T15:54:35.562Z,5.90
2018-03-26T15:57:03.157Z,6.63
2018-03-26T15:59:31.574Z,6.00
2018-03-26T16:01:59.859Z,6.57
2018-03-26T16:04:27.381Z,4.97
2018-03-26T16:06:55.759Z,5.43
2018-03-26T16:09:23.339Z,6.80
2018-03-26T16:11:50.855Z,8.73
2018-03-26T16:14:19.154Z,7.37
2018-03-26T16:16:47.536Z,6.57
2018-03-26T16:19:15.944Z,6.87
2018-03-26T16:21:43.559Z,5.23
2018-03-26T16:24:11.151Z,5.70
2018-03-26T16:26:38.673Z,5.80
2018-03-26T16:29:06.329Z,4.97
2018-03-26T16:31:33.983Z,5.30
2018-03-26T16:34:01.536Z,4.63
2018-03-26T16:36:29.074Z,5.00
2018-03-26T16:38:56.622Z,10.30
2018-03-26T16:41:35.858Z,7.90
2018-03-26T16:44:03.406Z,9.03
2018-03-26T16:46:30.977Z,6.00
2018-03-26T16:48:58.508Z,5.50
2018-03-26T16:51:26.284Z,6.63
2018-03-26T16:53:53.784Z,7.20
2018-03-26T16:56:34.258Z,6.07
2018-03-26T16:59:03.242Z,6.73
2018-03-26T17:01:30.775Z,6.13
2018-03-26T17:03:58.350Z,5.97
2018-03-26T17:06:25.903Z,5.53
2018-03-26T17:08:53.484Z,5.47
2018-03-26T17:11:21.018Z,4.80
2018-03-26T17:13:48.958Z,5.97
2018-03-26T17:16:16.562Z,5.37
2018-03-26T17:18:44.058Z,5.10
2018-03-26T17:21:11.708Z,4.90
2018-03-26T17:23:40.011Z,6.33
2018-03-26T17:26:07.519Z,6.20
2018-03-26T17:28:35.134Z,6.70
2018-03-26T17:31:02.701Z,5.67
2018-03-26T17:33:30.271Z,4.60
2018-03-26T17:35:57.782Z,6.10
2018-03-26T17:38:25.322Z,6.93
2018-03-26T17:40:53.727Z,5.97
2018-03-26T17:43:21.260Z,6.00
2018-03-26T17:45:48.848Z,5.50
2018-03-26T17:48:16.404Z,6.00
2018-03-26T17:50:44.068Z,5.57
2018-03-26T17:53:11.600Z,5.73
2018-03-26T17:55:39.892Z,6.10
2018-03-26T17:58:07.473Z,5.30
2018-03-26T18:00:35.019Z,6.13
2018-03-26T18:03:02.545Z,5.70
2018-03-26T18:05:30.859Z,5.93
2018-03-26T18:07:58.378Z,6.53
2018-03-26T18:10:26.758Z,6.33
2018-03-26T18:12:55.023Z,6.70
2018-03-26T18:15:23.332Z,7.10
2018-03-26T18:17:50.845Z,8.03
2018-03-26T18:20:18.339Z,6.63
2018-03-26T18:22:45.892Z,6.87
2018-03-26T18:25:14.256Z,6.17
2018-03-26T18:27:42.552Z,7.67
2018-03-26T18:30:10.105Z,7.30
2018-03-26T18:32:37.631Z,7.43
2018-03-26T18:35:05.178Z,7.93
2018-03-26T18:37:32.744Z,9.13
2018-03-26T18:40:00.264Z,10.80
2018-03-26T18:42:27.762Z,8.93
2018-03-26T18:44:55.312Z,8.00
2018-03-26T18:47:23.520Z,9.17
2018-03-26T18:49:51.794Z,8.80
2018-03-26T18:52:20.083Z,9.00
2018-03-26T18:54:47.588Z,9.57
2018-03-26T18:57:15.130Z,9.43
2018-03-26T18:59:42.742Z,11.37
2018-03-26T19:02:11.799Z,10.80
2018-03-26T19:04:39.364Z,12.00
2018-03-26T19:07:06.976Z,10.17
2018-03-26T19:09:34.495Z,10.80
2018-03-26T19:12:02.565Z,10.03
2018-03-26T19:14:30.855Z,8.80
2018-03-26T19:16:59.137Z,10.47
2018-03-26T19:19:27.491Z,10.00
2018-03-26T19:21:55.038Z,10.00
2018-03-26T19:24:23.446Z,8.97
2018-03-26T19:26:50.976Z,8.77
2018-03-26T19:29:18.630Z,8.70
2018-03-26T19:31:46.108Z,7.70
2018-03-26T19:34:14.387Z,7.43
2018-03-26T19:36:42.684Z,8.67
2018-03-26T19:39:10.194Z,8.63
2018-03-26T19:41:37.749Z,7.50
2018-03-26T19:44:06.164Z,7.33
2018-03-26T19:46:35.394Z,7.97
2018-03-26T19:49:02.946Z,7.57
2018-03-26T19:51:30.450Z,9.00
2018-03-26T19:53:57.953Z,8.23
2018-03-26T19:56:26.064Z,6.80
2018-03-26T19:58:53.723Z,7.83
2018-03-26T20:01:21.342Z,8.33
2018-03-26T20:03:48.916Z,9.07
2018-03-26T20:06:16.852Z,7.40
2018-03-26T20:08:44.423Z,8.10
2018-03-26T20:11:11.980Z,8.80
2018-03-26T20:13:41.019Z,8.10
2018-03-26T20:16:08.546Z,8.70
2018-03-26T20:18:36.390Z,8.40
2018-03-26T20:21:03.989Z,7.97
2018-03-26T20:23:31.526Z,10.57
2018-03-26T20:25:59.084Z,9.73
2018-03-26T20:28:27.134Z,9.47
2018-03-26T20:30:56.407Z,9.27
2018-03-26T20:33:23.947Z,8.50
2018-03-26T20:35:52.300Z,8.57
2018-03-26T20:38:20.306Z,9.20
2018-03-26T20:40:47.841Z,9.40
2018-03-26T20:43:15.627Z,9.73
2018-03-26T20:45:43.180Z,10.43
2018-03-26T20:48:10.789Z,9.37
2018-03-26T20:50:38.576Z,10.50
2018-03-26T20:53:06.123Z,9.10
2018-03-26T20:55:33.629Z,9.47
2018-03-26T20:58:01.150Z,8.93
2018-03-26T21:00:30.937Z,9.90
2018-03-26T21:02:58.580Z,8.23
2018-03-26T21:05:26.871Z,10.90
2018-03-26T21:07:54.423Z,9.87
2018-03-26T21:10:22.526Z,12.00
2018-03-26T21:12:50.150Z,11.07
2018-03-26T21:15:18.762Z,12.27
2018-03-26T21:17:46.258Z,12.40
2018-03-26T21:20:13.821Z,13.83
2018-03-26T21:22:41.338Z,14.10
2018-03-26T21:25:08.856Z,13.67
2018-03-26T21:27:37.227Z,13.57
2018-03-26T21:30:05.604Z,14.43
2018-03-26T21:32:33.135Z,15.30
2018-03-26T21:35:00.722Z,15.20
2018-03-26T21:37:29.050Z,15.00
2018-03-26T21:39:56.667Z,13.80
2018-03-26T21:42:24.980Z,15.10
2018-03-26T21:44:52.515Z,15.40
2018-03-26T21:47:20.057Z,15.07
2018-03-26T21:49:48.373Z,14.30
2018-03-26T21:52:15.984Z,15.43
2018-03-26T21:54:44.324Z,17.40
2018-03-26T21:57:11.847Z,17.30
2018-03-26T21:59:39.370Z,15.67
2018-03-26T22:02:07.671Z,19.13
2018-03-26T22:04:35.231Z,17.50
2018-03-26T22:07:02.782Z,16.87
2018-03-26T22:09:30.361Z,16.23
2018-03-26T22:11:57.867Z,16.53
2018-03-26T22:14:26.883Z,18.03
2018-03-26T22:16:55.221Z,18.40
2018-03-26T22:19:22.700Z,18.00
2018-03-26T22:21:50.236Z,17.50
2018-03-26T22:24:18.061Z,20.33
2018-03-26T22:26:45.610Z,18.93
2018-03-26T22:29:13.120Z,19.40
2018-03-26T22:31:40.682Z,18.53
2018-03-26T22:34:08.239Z,20.63
2018-03-26T22:36:35.847Z,19.03
2018-03-26T22:39:03.353Z,19.50
2018-03-26T22:41:30.848Z,21.53
2018-03-26T22:43:59.277Z,20.37
2018-03-26T22:46:26.855Z,20.20
2018-03-26T22:48:54.379Z,19.90
2018-03-26T22:51:21.889Z,20.20
2018-03-26T22:53:49.412Z,18.73
2018-03-26T22:56:16.967Z,21.47
2018-03-26T22:58:44.467Z,20.80
2018-03-26T23:01:12.025Z,20.37
2018-03-26T23:03:40.335Z,20.47
2018-03-26T23:06:07.950Z,24.10
2018-03-26T23:08:36.249Z,21.33
2018-03-26T23:11:03.790Z,20.20
2018-03-26T23:13:31.495Z,19.83
2018-03-26T23:15:58.978Z,22.97
2018-03-26T23:18:26.499Z,23.20
2018-03-26T23:20:54.048Z,21.97
2018-03-26T23:23:21.555Z,22.03
2018-03-26T23:25:49.386Z,19.90
2018-03-26T23:28:16.872Z,22.47
2018-03-26T23:30:44.389Z,22.10
2018-03-26T23:33:11.942Z,20.80
2018-03-26T23:35:39.526Z,24.00
2018-03-26T23:38:07.067Z,23.53
2018-03-26T23:40:35.494Z,24.53
2018-03-26T23:43:02.998Z,24.00
2018-03-26T23:45:30.529Z,25.27
2018-03-26T23:47:58.805Z,25.17
2018-03-26T23:50:27.129Z,26.03
2018-03-26T23:52:54.654Z,25.80
2018-03-26T23:55:22.164Z,24.93
2018-03-26T23:57:49.684Z,26.17
